sensor_id;sensor_type;location;lat;lon;timestamp;temperature;humidity
73955;DHT22;62306;52.516;13.290;2024-02-16T00:00:07;11.10;99.90
73955;DHT22;62306;52.516;13.290;2024-02-16T00:02:36;11.10;99.90
73955;DHT22;62306;52.516;13.290;2024-02-16T00:05:04;11.10;99.90
73955;DHT22;62306;52.516;13.290;2024-02-16T00:07:32;11.10;99.90
73955;DHT22;62306;52.516;13.290;2024-02-16T00:09:59;11.10;99.90
73955;DHT22;62306;52.516;13.290;2024-02-16T00:12:27;11.10;99.90
73955;DHT22;62306;52.516;13.290;2024-02-16T00:14:54;11.10;99.90
73955;DHT22;62306;52.516;13.290;2024-02-16T00:17:21;11.10;99.90
73955;DHT22;62306;52.516;13.290;2024-02-16T00:19:48;11.10;99.90
73955;DHT22;62306;52.516;13.290;2024-02-16T00:22:15;11.10;99.90
73955;DHT22;62306;52.516;13.290;2024-02-16T00:24:44;11.10;99.90
73955;DHT22;62306;52.516;13.290;2024-02-16T00:27:11;11.00;99.90
73955;DHT22;62306;52.516;13.290;2024-02-16T00:29:40;11.00;99.90
73955;DHT22;62306;52.516;13.290;2024-02-16T00:32:07;10.90;99.90
73955;DHT22;62306;52.516;13.290;2024-02-16T00:34:36;10.90;99.90
73955;DHT22;62306;52.516;13.290;2024-02-16T00:37:03;10.90;99.90
73955;DHT22;62306;52.516;13.290;2024-02-16T00:39:33;10.90;99.90
73955;DHT22;62306;52.516;13.290;2024-02-16T00:42:00;10.90;99.90
73955;DHT22;62306;52.516;13.290;2024-02-16T00:44:27;10.80;99.90
73955;DHT22;62306;52.516;13.290;2024-02-16T00:46:55;10.80;99.90
73955;DHT22;62306;52.516;13.290;2024-02-16T00:49:22;10.80;99.90
73955;DHT22;62306;52.516;13.290;2024-02-16T00:51:49;10.80;99.90
73955;DHT22;62306;52.516;13.290;2024-02-16T00:54:16;10.80;99.90
73955;DHT22;62306;52.516;13.290;2024-02-16T00:56:43;10.80;99.90
73955;DHT22;62306;52.516;13.290;2024-02-16T00:59:10;10.80;99.90
73955;DHT22;62306;52.516;13.290;2024-02-16T01:01:37;10.80;99.90
73955;DHT22;62306;52.516;13.290;2024-02-16T01:04:06;10.80;99.90
73955;DHT22;62306;52.516;13.290;2024-02-16T01:06:33;10.80;99.90
73955;DHT22;62306;52.516;13.290;2024-02-16T01:09:00;10.80;99.90
73955;DHT22;62306;52.516;13.290;2024-02-16T01:11:28;10.80;99.90
73955;DHT22;62306;52.516;13.290;2024-02-16T01:13:55;10.80;99.90
73955;DHT22;62306;52.516;13.290;2024-02-16T01:16:22;10.80;99.90
73955;DHT22;62306;52.516;13.290;2024-02-16T01:18:49;10.80;99.90
73955;DHT22;62306;52.516;13.290;2024-02-16T01:21:18;10.80;99.90
73955;DHT22;62306;52.516;13.290;2024-02-16T01:23:45;10.80;99.90
73955;DHT22;62306;52.516;13.290;2024-02-16T01:26:12;10.80;99.90
73955;DHT22;62306;52.516;13.290;2024-02-16T01:28:39;10.80;99.90
73955;DHT22;62306;52.516;13.290;2024-02-16T01:31:06;10.80;99.90
73955;DHT22;62306;52.516;13.290;2024-02-16T01:33:35;10.80;99.90
73955;DHT22;62306;52.516;13.290;2024-02-16T01:36:02;10.70;99.90
73955;DHT22;62306;52.516;13.290;2024-02-16T01:38:31;10.70;99.90
73955;DHT22;62306;52.516;13.290;2024-02-16T01:40:58;10.70;99.90
73955;DHT22;62306;52.516;13.290;2024-02-16T01:43:25;10.70;99.90
73955;DHT22;62306;52.516;13.290;2024-02-16T01:45:53;10.60;99.90
73955;DHT22;62306;52.516;13.290;2024-02-16T01:48:20;10.60;99.90
73955;DHT22;62306;52.516;13.290;2024-02-16T01:50:48;10.60;99.90
73955;DHT22;62306;52.516;13.290;2024-02-16T01:53:16;10.60;99.90
73955;DHT22;62306;52.516;13.290;2024-02-16T01:55:45;10.60;99.90
73955;DHT22;62306;52.516;13.290;2024-02-16T01:58:13;10.60;99.90
73955;DHT22;62306;52.516;13.290;2024-02-16T02:00:40;10.60;99.90
73955;DHT22;62306;52.516;13.290;2024-02-16T02:03:07;10.60;99.90
73955;DHT22;62306;52.516;13.290;2024-02-16T02:05:43;10.50;99.90
73955;DHT22;62306;52.516;13.290;2024-02-16T02:08:12;10.50;99.90
73955;DHT22;62306;52.516;13.290;2024-02-16T02:10:39;10.50;99.90
73955;DHT22;62306;52.516;13.290;2024-02-16T02:13:07;10.50;99.90
73955;DHT22;62306;52.516;13.290;2024-02-16T02:15:34;10.50;99.90
73955;DHT22;62306;52.516;13.290;2024-02-16T02:18:01;10.50;99.90
73955;DHT22;62306;52.516;13.290;2024-02-16T02:20:28;10.50;99.90
73955;DHT22;62306;52.516;13.290;2024-02-16T02:22:56;10.50;99.90
73955;DHT22;62306;52.516;13.290;2024-02-16T02:25:23;10.50;99.90
73955;DHT22;62306;52.516;13.290;2024-02-16T02:27:52;10.50;99.90
73955;DHT22;62306;52.516;13.290;2024-02-16T02:30:19;10.40;99.90
73955;DHT22;62306;52.516;13.290;2024-02-16T02:32:46;10.40;99.90
73955;DHT22;62306;52.516;13.290;2024-02-16T02:35:15;10.40;99.90
73955;DHT22;62306;52.516;13.290;2024-02-16T02:37:43;10.40;99.90
73955;DHT22;62306;52.516;13.290;2024-02-16T02:40:12;10.40;99.90
73955;DHT22;62306;52.516;13.290;2024-02-16T02:42:39;10.40;99.90
73955;DHT22;62306;52.516;13.290;2024-02-16T02:45:07;10.40;99.90
73955;DHT22;62306;52.516;13.290;2024-02-16T02:47:34;10.40;99.90
73955;DHT22;62306;52.516;13.290;2024-02-16T02:50:00;10.40;99.90
73955;DHT22;62306;52.516;13.290;2024-02-16T02:52:27;10.40;99.90
73955;DHT22;62306;52.516;13.290;2024-02-16T02:54:55;10.40;99.90
73955;DHT22;62306;52.516;13.290;2024-02-16T02:57:23;10.40;99.90
73955;DHT22;62306;52.516;13.290;2024-02-16T02:59:50;10.40;99.90
73955;DHT22;62306;52.516;13.290;2024-02-16T03:02:17;10.40;99.90
73955;DHT22;62306;52.516;13.290;2024-02-16T03:04:44;10.30;99.90
73955;DHT22;62306;52.516;13.290;2024-02-16T03:07:11;10.40;99.90
73955;DHT22;62306;52.516;13.290;2024-02-16T03:09:37;10.70;99.90
73955;DHT22;62306;52.516;13.290;2024-02-16T03:12:05;10.30;99.90
73955;DHT22;62306;52.516;13.290;2024-02-16T03:14:33;10.30;99.90
73955;DHT22;62306;52.516;13.290;2024-02-16T03:17:00;10.30;99.90
73955;DHT22;62306;52.516;13.290;2024-02-16T03:19:27;10.30;99.90
73955;DHT22;62306;52.516;13.290;2024-02-16T03:21:54;10.30;99.90
73955;DHT22;62306;52.516;13.290;2024-02-16T03:24:21;10.30;99.90
73955;DHT22;62306;52.516;13.290;2024-02-16T03:26:48;10.30;99.90
73955;DHT22;62306;52.516;13.290;2024-02-16T03:29:15;10.30;99.90
73955;DHT22;62306;52.516;13.290;2024-02-16T03:31:43;10.30;99.90
73955;DHT22;62306;52.516;13.290;2024-02-16T03:34:10;10.30;99.90
73955;DHT22;62306;52.516;13.290;2024-02-16T03:36:37;10.30;99.90
73955;DHT22;62306;52.516;13.290;2024-02-16T03:39:04;9.90;99.90
73955;DHT22;62306;52.516;13.290;2024-02-16T03:41:34;10.30;99.90
73955;DHT22;62306;52.516;13.290;2024-02-16T03:44:01;10.30;99.90
73955;DHT22;62306;52.516;13.290;2024-02-16T03:46:28;10.30;99.90
73955;DHT22;62306;52.516;13.290;2024-02-16T03:48:57;10.20;99.90
73955;DHT22;62306;52.516;13.290;2024-02-16T03:51:24;10.20;99.90
73955;DHT22;62306;52.516;13.290;2024-02-16T03:53:51;10.20;99.90
73955;DHT22;62306;52.516;13.290;2024-02-16T03:56:20;10.10;99.90
73955;DHT22;62306;52.516;13.290;2024-02-16T03:58:47;10.10;99.90
73955;DHT22;62306;52.516;13.290;2024-02-16T04:01:14;10.00;99.90
73955;DHT22;62306;52.516;13.290;2024-02-16T04:03:41;10.00;99.90
73955;DHT22;62306;52.516;13.290;2024-02-16T04:06:09;10.00;99.90
73955;DHT22;62306;52.516;13.290;2024-02-16T04:08:36;10.00;99.90
73955;DHT22;62306;52.516;13.290;2024-02-16T04:11:03;10.00;99.90
73955;DHT22;62306;52.516;13.290;2024-02-16T04:13:31;9.90;99.90
73955;DHT22;62306;52.516;13.290;2024-02-16T04:15:58;10.00;99.90
73955;DHT22;62306;52.516;13.290;2024-02-16T04:18:25;10.00;99.90
73955;DHT22;62306;52.516;13.290;2024-02-16T04:20:52;10.00;99.90
73955;DHT22;62306;52.516;13.290;2024-02-16T04:23:20;10.10;99.90
73955;DHT22;62306;52.516;13.290;2024-02-16T04:25:47;10.10;99.90
73955;DHT22;62306;52.516;13.290;2024-02-16T04:28:14;10.10;99.90
73955;DHT22;62306;52.516;13.290;2024-02-16T04:30:44;10.10;99.90
73955;DHT22;62306;52.516;13.290;2024-02-16T04:33:11;10.10;99.90
73955;DHT22;62306;52.516;13.290;2024-02-16T04:35:38;10.10;99.90
73955;DHT22;62306;52.516;13.290;2024-02-16T04:38:05;10.10;99.90
73955;DHT22;62306;52.516;13.290;2024-02-16T04:40:36;10.10;99.90
73955;DHT22;62306;52.516;13.290;2024-02-16T04:43:04;10.10;99.90
73955;DHT22;62306;52.516;13.290;2024-02-16T04:45:30;10.10;99.90
73955;DHT22;62306;52.516;13.290;2024-02-16T04:48:01;10.10;99.90
73955;DHT22;62306;52.516;13.290;2024-02-16T04:50:28;10.10;99.90
73955;DHT22;62306;52.516;13.290;2024-02-16T04:52:55;10.10;99.90
73955;DHT22;62306;52.516;13.290;2024-02-16T04:55:22;10.10;99.90
73955;DHT22;62306;52.516;13.290;2024-02-16T04:57:51;10.10;99.90
73955;DHT22;62306;52.516;13.290;2024-02-16T05:00:18;10.10;99.90
73955;DHT22;62306;52.516;13.290;2024-02-16T05:02:46;10.10;99.90
73955;DHT22;62306;52.516;13.290;2024-02-16T05:05:13;10.10;99.90
73955;DHT22;62306;52.516;13.290;2024-02-16T05:07:41;10.00;99.90
73955;DHT22;62306;52.516;13.290;2024-02-16T05:10:09;10.00;99.90
73955;DHT22;62306;52.516;13.290;2024-02-16T05:12:37;10.00;99.90
73955;DHT22;62306;52.516;13.290;2024-02-16T05:15:06;9.90;99.90
73955;DHT22;62306;52.516;13.290;2024-02-16T05:17:33;9.90;99.90
73955;DHT22;62306;52.516;13.290;2024-02-16T05:20:00;9.90;99.90
73955;DHT22;62306;52.516;13.290;2024-02-16T05:22:27;9.90;99.90
73955;DHT22;62306;52.516;13.290;2024-02-16T05:24:54;9.90;99.90
73955;DHT22;62306;52.516;13.290;2024-02-16T05:27:21;9.80;99.90
73955;DHT22;62306;52.516;13.290;2024-02-16T05:29:49;9.80;99.90
73955;DHT22;62306;52.516;13.290;2024-02-16T05:32:18;9.80;99.90
73955;DHT22;62306;52.516;13.290;2024-02-16T05:34:45;9.80;99.90
73955;DHT22;62306;52.516;13.290;2024-02-16T05:37:12;9.80;99.90
73955;DHT22;62306;52.516;13.290;2024-02-16T05:39:40;9.80;99.90
73955;DHT22;62306;52.516;13.290;2024-02-16T05:42:19;9.80;99.90
73955;DHT22;62306;52.516;13.290;2024-02-16T05:44:47;9.80;99.90
73955;DHT22;62306;52.516;13.290;2024-02-16T05:47:15;9.90;99.90
73955;DHT22;62306;52.516;13.290;2024-02-16T05:49:45;9.80;99.90
73955;DHT22;62306;52.516;13.290;2024-02-16T05:52:12;9.80;99.90
73955;DHT22;62306;52.516;13.290;2024-02-16T05:54:46;9.80;99.90
73955;DHT22;62306;52.516;13.290;2024-02-16T05:57:13;9.80;99.90
73955;DHT22;62306;52.516;13.290;2024-02-16T05:59:41;9.80;99.90
73955;DHT22;62306;52.516;13.290;2024-02-16T06:02:08;9.80;99.90
73955;DHT22;62306;52.516;13.290;2024-02-16T06:04:37;9.80;99.90
73955;DHT22;62306;52.516;13.290;2024-02-16T06:07:06;9.80;99.90
73955;DHT22;62306;52.516;13.290;2024-02-16T06:09:34;9.80;99.90
73955;DHT22;62306;52.516;13.290;2024-02-16T06:12:04;9.80;99.90
73955;DHT22;62306;52.516;13.290;2024-02-16T06:14:33;9.80;99.90
73955;DHT22;62306;52.516;13.290;2024-02-16T06:17:00;9.80;99.90
73955;DHT22;62306;52.516;13.290;2024-02-16T06:19:27;9.80;99.90
73955;DHT22;62306;52.516;13.290;2024-02-16T06:21:55;9.80;99.90
73955;DHT22;62306;52.516;13.290;2024-02-16T06:24:23;9.80;99.90
73955;DHT22;62306;52.516;13.290;2024-02-16T06:26:50;9.80;99.90
73955;DHT22;62306;52.516;13.290;2024-02-16T06:29:18;9.80;99.90
73955;DHT22;62306;52.516;13.290;2024-02-16T06:31:46;9.80;99.90
73955;DHT22;62306;52.516;13.290;2024-02-16T06:34:13;9.90;99.90
73955;DHT22;62306;52.516;13.290;2024-02-16T06:36:40;9.80;99.90
73955;DHT22;62306;52.516;13.290;2024-02-16T06:39:07;9.80;99.90
73955;DHT22;62306;52.516;13.290;2024-02-16T06:41:36;9.90;99.90
73955;DHT22;62306;52.516;13.290;2024-02-16T06:44:04;9.90;99.90
73955;DHT22;62306;52.516;13.290;2024-02-16T06:46:31;9.90;99.90
73955;DHT22;62306;52.516;13.290;2024-02-16T06:48:58;10.00;99.90
73955;DHT22;62306;52.516;13.290;2024-02-16T06:51:26;10.00;99.90
73955;DHT22;62306;52.516;13.290;2024-02-16T06:53:54;10.00;99.90
73955;DHT22;62306;52.516;13.290;2024-02-16T06:56:21;10.00;99.90
73955;DHT22;62306;52.516;13.290;2024-02-16T06:58:50;10.00;99.90
73955;DHT22;62306;52.516;13.290;2024-02-16T07:01:19;10.10;99.90
73955;DHT22;62306;52.516;13.290;2024-02-16T07:03:46;10.20;99.90
73955;DHT22;62306;52.516;13.290;2024-02-16T07:06:13;10.20;99.90
73955;DHT22;62306;52.516;13.290;2024-02-16T07:08:40;10.20;99.90
73955;DHT22;62306;52.516;13.290;2024-02-16T07:11:07;10.20;99.90
73955;DHT22;62306;52.516;13.290;2024-02-16T07:13:37;10.30;99.90
73955;DHT22;62306;52.516;13.290;2024-02-16T07:16:06;10.30;99.90
73955;DHT22;62306;52.516;13.290;2024-02-16T07:18:33;10.30;99.90
73955;DHT22;62306;52.516;13.290;2024-02-16T07:21:01;10.40;99.90
73955;DHT22;62306;52.516;13.290;2024-02-16T07:23:29;10.40;99.90
73955;DHT22;62306;52.516;13.290;2024-02-16T07:25:56;10.40;99.90
73955;DHT22;62306;52.516;13.290;2024-02-16T07:28:23;10.50;99.90
73955;DHT22;62306;52.516;13.290;2024-02-16T07:30:51;10.50;99.90
73955;DHT22;62306;52.516;13.290;2024-02-16T07:33:20;10.60;99.90
73955;DHT22;62306;52.516;13.290;2024-02-16T07:35:47;10.60;99.90
73955;DHT22;62306;52.516;13.290;2024-02-16T07:38:14;10.70;99.90
73955;DHT22;62306;52.516;13.290;2024-02-16T07:40:41;10.70;99.90
73955;DHT22;62306;52.516;13.290;2024-02-16T07:43:08;10.80;99.90
73955;DHT22;62306;52.516;13.290;2024-02-16T07:45:35;10.90;99.90
73955;DHT22;62306;52.516;13.290;2024-02-16T07:48:02;11.00;99.90
73955;DHT22;62306;52.516;13.290;2024-02-16T07:50:32;11.20;99.90
73955;DHT22;62306;52.516;13.290;2024-02-16T07:52:59;11.40;99.90
73955;DHT22;62306;52.516;13.290;2024-02-16T07:55:26;11.70;99.90
73955;DHT22;62306;52.516;13.290;2024-02-16T07:57:53;11.90;99.90
73955;DHT22;62306;52.516;13.290;2024-02-16T08:00:20;12.10;99.90
73955;DHT22;62306;52.516;13.290;2024-02-16T08:02:48;12.20;99.90
73955;DHT22;62306;52.516;13.290;2024-02-16T08:05:15;12.30;99.90
73955;DHT22;62306;52.516;13.290;2024-02-16T08:07:46;12.30;99.90
73955;DHT22;62306;52.516;13.290;2024-02-16T08:10:13;12.20;99.90
73955;DHT22;62306;52.516;13.290;2024-02-16T08:12:41;12.30;99.90
73955;DHT22;62306;52.516;13.290;2024-02-16T08:15:08;12.30;99.90
73955;DHT22;62306;52.516;13.290;2024-02-16T08:17:36;12.40;99.90
73955;DHT22;62306;52.516;13.290;2024-02-16T08:20:04;12.50;99.90
73955;DHT22;62306;52.516;13.290;2024-02-16T08:22:31;12.70;99.90
73955;DHT22;62306;52.516;13.290;2024-02-16T08:25:01;12.80;99.90
73955;DHT22;62306;52.516;13.290;2024-02-16T08:27:28;13.00;99.90
73955;DHT22;62306;52.516;13.290;2024-02-16T08:29:55;13.10;99.90
73955;DHT22;62306;52.516;13.290;2024-02-16T08:32:22;13.00;99.90
73955;DHT22;62306;52.516;13.290;2024-02-16T08:34:49;13.00;99.90
73955;DHT22;62306;52.516;13.290;2024-02-16T08:37:16;12.90;99.90
73955;DHT22;62306;52.516;13.290;2024-02-16T08:39:43;12.90;99.90
73955;DHT22;62306;52.516;13.290;2024-02-16T08:42:12;12.90;99.90
73955;DHT22;62306;52.516;13.290;2024-02-16T08:44:39;12.80;99.90
73955;DHT22;62306;52.516;13.290;2024-02-16T08:47:08;12.70;99.90
73955;DHT22;62306;52.516;13.290;2024-02-16T08:49:35;12.70;99.90
73955;DHT22;62306;52.516;13.290;2024-02-16T08:54:32;13.00;99.90
73955;DHT22;62306;52.516;13.290;2024-02-16T08:56:59;12.90;99.90
73955;DHT22;62306;52.516;13.290;2024-02-16T08:59:27;12.90;99.90
73955;DHT22;62306;52.516;13.290;2024-02-16T09:01:55;12.90;99.90
73955;DHT22;62306;52.516;13.290;2024-02-16T09:04:24;12.90;99.90
73955;DHT22;62306;52.516;13.290;2024-02-16T09:06:51;12.80;99.90
73955;DHT22;62306;52.516;13.290;2024-02-16T09:09:18;12.80;99.90
73955;DHT22;62306;52.516;13.290;2024-02-16T09:11:45;12.80;99.90
73955;DHT22;62306;52.516;13.290;2024-02-16T09:14:12;12.80;99.90
73955;DHT22;62306;52.516;13.290;2024-02-16T09:16:41;12.90;99.90
73955;DHT22;62306;52.516;13.290;2024-02-16T09:19:07;13.00;99.90
73955;DHT22;62306;52.516;13.290;2024-02-16T09:21:35;13.00;99.90
73955;DHT22;62306;52.516;13.290;2024-02-16T09:24:02;13.10;99.90
73955;DHT22;62306;52.516;13.290;2024-02-16T09:26:30;13.10;99.90
73955;DHT22;62306;52.516;13.290;2024-02-16T09:28:58;13.30;99.90
73955;DHT22;62306;52.516;13.290;2024-02-16T09:31:25;13.40;99.90
73955;DHT22;62306;52.516;13.290;2024-02-16T09:33:54;13.60;99.90
73955;DHT22;62306;52.516;13.290;2024-02-16T09:36:21;13.70;99.90
73955;DHT22;62306;52.516;13.290;2024-02-16T09:38:48;13.90;99.90
73955;DHT22;62306;52.516;13.290;2024-02-16T09:41:16;14.00;99.90
73955;DHT22;62306;52.516;13.290;2024-02-16T09:43:43;14.10;99.90
73955;DHT22;62306;52.516;13.290;2024-02-16T09:46:10;14.10;99.90
73955;DHT22;62306;52.516;13.290;2024-02-16T09:48:40;14.20;99.90
73955;DHT22;62306;52.516;13.290;2024-02-16T09:51:10;14.20;99.90
73955;DHT22;62306;52.516;13.290;2024-02-16T09:53:37;14.30;99.90
73955;DHT22;62306;52.516;13.290;2024-02-16T09:56:05;14.30;99.90
73955;DHT22;62306;52.516;13.290;2024-02-16T09:58:34;14.30;99.90
73955;DHT22;62306;52.516;13.290;2024-02-16T10:01:02;14.40;99.90
73955;DHT22;62306;52.516;13.290;2024-02-16T10:03:30;14.40;99.90
73955;DHT22;62306;52.516;13.290;2024-02-16T10:06:04;14.20;99.90
73955;DHT22;62306;52.516;13.290;2024-02-16T10:08:33;14.50;99.90
73955;DHT22;62306;52.516;13.290;2024-02-16T10:11:01;14.40;99.90
73955;DHT22;62306;52.516;13.290;2024-02-16T10:13:29;14.30;99.90
73955;DHT22;62306;52.516;13.290;2024-02-16T10:16:04;14.30;99.90
73955;DHT22;62306;52.516;13.290;2024-02-16T10:18:34;14.30;99.90
73955;DHT22;62306;52.516;13.290;2024-02-16T10:21:01;14.30;99.90
73955;DHT22;62306;52.516;13.290;2024-02-16T10:23:28;14.40;99.90
73955;DHT22;62306;52.516;13.290;2024-02-16T10:25:57;14.40;99.90
73955;DHT22;62306;52.516;13.290;2024-02-16T10:28:26;14.50;99.90
73955;DHT22;62306;52.516;13.290;2024-02-16T10:30:58;14.50;99.90
73955;DHT22;62306;52.516;13.290;2024-02-16T10:33:27;14.60;99.90
73955;DHT22;62306;52.516;13.290;2024-02-16T10:35:55;14.70;99.90
73955;DHT22;62306;52.516;13.290;2024-02-16T10:38:25;14.80;99.90
73955;DHT22;62306;52.516;13.290;2024-02-16T10:40:53;14.80;99.90
73955;DHT22;62306;52.516;13.290;2024-02-16T10:43:21;14.70;99.90
73955;DHT22;62306;52.516;13.290;2024-02-16T10:45:49;14.60;99.90
73955;DHT22;62306;52.516;13.290;2024-02-16T10:48:18;14.50;99.90
73955;DHT22;62306;52.516;13.290;2024-02-16T10:50:46;14.50;99.90
73955;DHT22;62306;52.516;13.290;2024-02-16T10:53:21;14.50;99.90
73955;DHT22;62306;52.516;13.290;2024-02-16T10:55:49;14.40;99.90
73955;DHT22;62306;52.516;13.290;2024-02-16T10:58:17;14.40;99.90
73955;DHT22;62306;52.516;13.290;2024-02-16T11:00:53;14.50;99.90
73955;DHT22;62306;52.516;13.290;2024-02-16T11:03:25;14.30;99.90
73955;DHT22;62306;52.516;13.290;2024-02-16T11:05:53;14.30;99.90
73955;DHT22;62306;52.516;13.290;2024-02-16T11:08:21;14.40;99.90
73955;DHT22;62306;52.516;13.290;2024-02-16T11:10:56;14.40;99.90
73955;DHT22;62306;52.516;13.290;2024-02-16T11:13:24;14.40;99.90
73955;DHT22;62306;52.516;13.290;2024-02-16T11:15:58;14.50;99.90
73955;DHT22;62306;52.516;13.290;2024-02-16T11:18:26;14.50;99.90
73955;DHT22;62306;52.516;13.290;2024-02-16T11:20:53;14.50;99.90
73955;DHT22;62306;52.516;13.290;2024-02-16T11:23:27;14.60;99.90
73955;DHT22;62306;52.516;13.290;2024-02-16T11:26:00;14.60;99.90
73955;DHT22;62306;52.516;13.290;2024-02-16T11:28:28;14.70;99.90
73955;DHT22;62306;52.516;13.290;2024-02-16T11:30:55;14.70;99.90
73955;DHT22;62306;52.516;13.290;2024-02-16T11:33:24;14.80;99.90
73955;DHT22;62306;52.516;13.290;2024-02-16T11:35:53;14.70;99.90
73955;DHT22;62306;52.516;13.290;2024-02-16T11:38:21;14.90;99.90
73955;DHT22;62306;52.516;13.290;2024-02-16T11:40:56;15.10;99.90
73955;DHT22;62306;52.516;13.290;2024-02-16T11:43:23;15.20;99.90
73955;DHT22;62306;52.516;13.290;2024-02-16T11:45:51;15.80;99.90
73955;DHT22;62306;52.516;13.290;2024-02-16T11:48:21;16.30;99.90
73955;DHT22;62306;52.516;13.290;2024-02-16T11:50:59;16.70;99.90
73955;DHT22;62306;52.516;13.290;2024-02-16T11:53:27;17.00;99.90
73955;DHT22;62306;52.516;13.290;2024-02-16T11:55:54;17.20;99.90
73955;DHT22;62306;52.516;13.290;2024-02-16T11:58:21;17.30;99.90
73955;DHT22;62306;52.516;13.290;2024-02-16T12:00:49;17.40;99.90
73955;DHT22;62306;52.516;13.290;2024-02-16T12:03:20;17.50;99.90
73955;DHT22;62306;52.516;13.290;2024-02-16T12:05:52;17.60;99.90
73955;DHT22;62306;52.516;13.290;2024-02-16T12:08:19;17.50;99.90
73955;DHT22;62306;52.516;13.290;2024-02-16T12:10:47;17.70;99.90
73955;DHT22;62306;52.516;13.290;2024-02-16T12:13:16;17.60;99.90
73955;DHT22;62306;52.516;13.290;2024-02-16T12:15:44;17.50;99.90
73955;DHT22;62306;52.516;13.290;2024-02-16T12:18:18;17.40;99.90
73955;DHT22;62306;52.516;13.290;2024-02-16T12:20:45;17.10;99.90
73955;DHT22;62306;52.516;13.290;2024-02-16T12:23:24;17.00;99.90
73955;DHT22;62306;52.516;13.290;2024-02-16T12:25:51;16.90;99.90
73955;DHT22;62306;52.516;13.290;2024-02-16T12:28:18;17.00;99.90
73955;DHT22;62306;52.516;13.290;2024-02-16T12:30:45;16.90;99.90
73955;DHT22;62306;52.516;13.290;2024-02-16T12:33:12;16.90;99.90
73955;DHT22;62306;52.516;13.290;2024-02-16T12:35:40;17.00;99.90
73955;DHT22;62306;52.516;13.290;2024-02-16T12:38:06;17.20;99.90
73955;DHT22;62306;52.516;13.290;2024-02-16T12:40:35;17.40;99.90
73955;DHT22;62306;52.516;13.290;2024-02-16T12:43:02;17.40;99.90
73955;DHT22;62306;52.516;13.290;2024-02-16T12:45:29;17.30;99.90
73955;DHT22;62306;52.516;13.290;2024-02-16T12:47:57;17.30;99.90
73955;DHT22;62306;52.516;13.290;2024-02-16T12:50:24;17.30;99.90
73955;DHT22;62306;52.516;13.290;2024-02-16T12:52:51;17.10;99.90
73955;DHT22;62306;52.516;13.290;2024-02-16T12:55:18;17.10;99.90
73955;DHT22;62306;52.516;13.290;2024-02-16T12:57:46;17.00;99.90
73955;DHT22;62306;52.516;13.290;2024-02-16T13:00:14;17.00;99.90
73955;DHT22;62306;52.516;13.290;2024-02-16T13:02:41;17.00;99.90
73955;DHT22;62306;52.516;13.290;2024-02-16T13:05:08;16.90;99.90
73955;DHT22;62306;52.516;13.290;2024-02-16T13:07:36;16.90;99.90
73955;DHT22;62306;52.516;13.290;2024-02-16T13:10:06;17.00;99.90
73955;DHT22;62306;52.516;13.290;2024-02-16T13:12:33;16.90;99.90
73955;DHT22;62306;52.516;13.290;2024-02-16T13:15:02;16.90;99.90
73955;DHT22;62306;52.516;13.290;2024-02-16T13:17:30;16.70;99.90
73955;DHT22;62306;52.516;13.290;2024-02-16T13:19:57;16.70;99.90
73955;DHT22;62306;52.516;13.290;2024-02-16T13:22:32;16.60;99.90
73955;DHT22;62306;52.516;13.290;2024-02-16T13:24:59;16.60;99.90
73955;DHT22;62306;52.516;13.290;2024-02-16T13:29:55;16.60;99.90
73955;DHT22;62306;52.516;13.290;2024-02-16T13:32:23;16.70;99.90
73955;DHT22;62306;52.516;13.290;2024-02-16T13:34:50;16.60;99.90
73955;DHT22;62306;52.516;13.290;2024-02-16T13:37:17;16.70;99.90
73955;DHT22;62306;52.516;13.290;2024-02-16T13:39:44;16.70;99.90
73955;DHT22;62306;52.516;13.290;2024-02-16T13:42:12;16.70;99.90
73955;DHT22;62306;52.516;13.290;2024-02-16T13:44:39;16.70;99.90
73955;DHT22;62306;52.516;13.290;2024-02-16T13:47:06;16.60;99.90
73955;DHT22;62306;52.516;13.290;2024-02-16T13:49:35;16.50;99.90
73955;DHT22;62306;52.516;13.290;2024-02-16T13:52:02;16.40;99.90
73955;DHT22;62306;52.516;13.290;2024-02-16T13:54:29;16.40;99.90
73955;DHT22;62306;52.516;13.290;2024-02-16T13:56:56;16.40;99.90
73955;DHT22;62306;52.516;13.290;2024-02-16T13:59:23;16.40;99.90
73955;DHT22;62306;52.516;13.290;2024-02-16T14:01:50;16.50;99.90
73955;DHT22;62306;52.516;13.290;2024-02-16T14:04:17;16.50;99.90
73955;DHT22;62306;52.516;13.290;2024-02-16T14:06:46;16.50;99.90
73955;DHT22;62306;52.516;13.290;2024-02-16T14:09:13;16.50;99.90
73955;DHT22;62306;52.516;13.290;2024-02-16T14:11:40;16.40;99.90
73955;DHT22;62306;52.516;13.290;2024-02-16T14:14:08;16.50;99.90
73955;DHT22;62306;52.516;13.290;2024-02-16T14:16:35;16.50;99.90
73955;DHT22;62306;52.516;13.290;2024-02-16T14:19:03;16.40;99.90
73955;DHT22;62306;52.516;13.290;2024-02-16T14:21:30;16.30;99.90
73955;DHT22;62306;52.516;13.290;2024-02-16T14:23:58;16.30;99.90
73955;DHT22;62306;52.516;13.290;2024-02-16T14:26:25;16.30;99.90
73955;DHT22;62306;52.516;13.290;2024-02-16T14:28:52;16.30;99.90
73955;DHT22;62306;52.516;13.290;2024-02-16T14:31:20;16.30;99.90
73955;DHT22;62306;52.516;13.290;2024-02-16T14:33:48;16.20;99.90
73955;DHT22;62306;52.516;13.290;2024-02-16T14:36:22;16.20;99.90
73955;DHT22;62306;52.516;13.290;2024-02-16T14:38:50;16.20;99.90
73955;DHT22;62306;52.516;13.290;2024-02-16T14:41:20;16.20;99.90
73955;DHT22;62306;52.516;13.290;2024-02-16T14:43:55;16.20;99.90
73955;DHT22;62306;52.516;13.290;2024-02-16T14:46:32;16.30;99.90
73955;DHT22;62306;52.516;13.290;2024-02-16T14:49:47;16.30;99.90
73955;DHT22;62306;52.516;13.290;2024-02-16T14:52:16;16.40;99.90
73955;DHT22;62306;52.516;13.290;2024-02-16T14:54:58;16.30;99.90
73955;DHT22;62306;52.516;13.290;2024-02-16T14:57:28;16.30;99.90
73955;DHT22;62306;52.516;13.290;2024-02-16T14:59:59;16.30;99.90
73955;DHT22;62306;52.516;13.290;2024-02-16T15:02:28;16.20;99.90
73955;DHT22;62306;52.516;13.290;2024-02-16T15:05:07;16.20;99.90
73955;DHT22;62306;52.516;13.290;2024-02-16T15:07:38;16.10;99.90
73955;DHT22;62306;52.516;13.290;2024-02-16T15:10:10;16.10;99.90
73955;DHT22;62306;52.516;13.290;2024-02-16T15:12:40;16.20;99.90
73955;DHT22;62306;52.516;13.290;2024-02-16T15:15:09;16.20;99.90
73955;DHT22;62306;52.516;13.290;2024-02-16T15:17:38;16.10;99.90
73955;DHT22;62306;52.516;13.290;2024-02-16T15:20:07;16.00;99.90
73955;DHT22;62306;52.516;13.290;2024-02-16T15:22:35;15.90;99.90
73955;DHT22;62306;52.516;13.290;2024-02-16T15:25:15;15.90;99.90
73955;DHT22;62306;52.516;13.290;2024-02-16T15:27:44;15.90;99.90